createdAt,value
2022-11-25T00:01:36.552Z,6.51
2022-11-25T00:04:06.827Z,6.46
2022-11-25T00:06:37.264Z,6.47
2022-11-25T00:09:10.579Z,6.51
2022-11-25T00:11:40.409Z,6.56
2022-11-25T00:14:11.513Z,6.58
2022-11-25T00:16:45.124Z,6.57
2022-11-25T00:19:18.515Z,6.56
2022-11-25T00:21:47.223Z,6.56
2022-11-25T00:24:17.387Z,6.58
2022-11-25T00:26:46.419Z,6.61
2022-11-25T00:29:15.272Z,6.64
2022-11-25T00:31:44.742Z,6.67
2022-11-25T00:34:15.264Z,6.69
2022-11-25T00:36:45.366Z,6.68
2022-11-25T00:39:16.291Z,6.70
2022-11-25T00:42:03.387Z,6.72
2022-11-25T00:44:40.497Z,6.73
2022-11-25T00:47:11.986Z,6.72
2022-11-25T00:49:43.589Z,6.25
2022-11-25T00:52:17.690Z,6.73
2022-11-25T00:54:47.753Z,6.74
2022-11-25T00:57:17.847Z,6.75
2022-11-25T00:59:46.583Z,6.75
2022-11-25T01:02:16.976Z,6.73
2022-11-25T01:04:46.351Z,6.71
2022-11-25T01:07:19.241Z,6.70
2022-11-25T01:09:49.026Z,6.67
2022-11-25T01:12:17.829Z,6.62
2022-11-25T01:14:46.452Z,6.57
2022-11-25T01:17:16.027Z,6.52
2022-11-25T01:19:44.619Z,6.50
2022-11-25T01:22:13.263Z,6.46
2022-11-25T01:24:45.940Z,6.44
2022-11-25T01:27:15.466Z,6.41
2022-11-25T01:29:44.052Z,6.37
2022-11-25T01:32:15.213Z,6.31
2022-11-25T01:34:44.379Z,6.25
2022-11-25T01:37:12.939Z,6.21
2022-11-25T01:39:41.596Z,6.20
2022-11-25T01:42:11.718Z,6.18
2022-11-25T01:44:43.480Z,6.19
2022-11-25T01:47:16.976Z,6.18
2022-11-25T01:49:52.141Z,6.17
2022-11-25T01:52:29.195Z,6.12
2022-11-25T01:55:03.030Z,6.00
2022-11-25T01:57:41.026Z,5.90
2022-11-25T02:00:12.122Z,5.79
2022-11-25T02:02:47.904Z,5.71
2022-11-25T02:05:20.545Z,5.67
2022-11-25T02:07:52.423Z,5.65
2022-11-25T02:10:26.534Z,5.62
2022-11-25T02:12:58.445Z,5.57
2022-11-25T02:15:27.967Z,4.42
2022-11-25T02:17:57.852Z,5.46
2022-11-25T02:20:26.999Z,5.43
2022-11-25T02:23:04.320Z,5.38
2022-11-25T02:25:36.296Z,5.34
2022-11-25T02:28:13.440Z,5.27
2022-11-25T02:30:42.838Z,5.20
2022-11-25T02:33:11.482Z,5.09
2022-11-25T02:35:42.363Z,4.84
2022-11-25T02:38:14.297Z,4.83
2022-11-25T02:40:48.830Z,4.73
2022-11-25T02:43:17.887Z,4.65
2022-11-25T02:45:58.587Z,4.50
2022-11-25T02:48:46.134Z,4.54
2022-11-25T02:51:18.939Z,4.53
2022-11-25T02:53:48.735Z,4.54
2022-11-25T02:56:24.408Z,4.60
2022-11-25T02:58:53.139Z,4.69
2022-11-25T03:01:22.219Z,4.70
2022-11-25T03:03:51.951Z,4.71
2022-11-25T03:06:20.601Z,4.72
2022-11-25T03:08:50.086Z,4.69
2022-11-25T03:11:20.951Z,4.64
2022-11-25T03:13:49.604Z,4.61
2022-11-25T03:16:18.244Z,4.56
2022-11-25T03:18:46.991Z,4.51
2022-11-25T03:21:17.421Z,4.46
2022-11-25T03:23:46.036Z,4.37
2022-11-25T03:26:14.619Z,4.29
2022-11-25T03:28:44.608Z,4.21
2022-11-25T03:31:13.525Z,4.12
2022-11-25T03:33:42.092Z,4.03
2022-11-25T03:36:10.695Z,3.96
2022-11-25T03:38:39.336Z,3.91
2022-11-25T03:41:08.427Z,3.86
2022-11-25T03:43:37.169Z,3.87
2022-11-25T03:46:07.385Z,3.95
2022-11-25T03:48:36.457Z,4.05
2022-11-25T03:51:05.154Z,4.12
2022-11-25T03:53:34.095Z,4.23
2022-11-25T03:56:06.001Z,4.34
2022-11-25T03:58:34.689Z,4.44
2022-11-25T04:01:20.264Z,4.53
2022-11-25T04:03:50.351Z,4.59
2022-11-25T04:06:20.182Z,4.69
2022-11-25T04:08:53.740Z,4.79
2022-11-25T04:11:43.040Z,4.88
2022-11-25T04:14:11.551Z,4.96
2022-11-25T04:16:40.211Z,5.03
2022-11-25T04:19:10.668Z,5.06
2022-11-25T04:21:39.693Z,5.09
2022-11-25T04:24:09.072Z,5.11
2022-11-25T04:26:37.819Z,5.14
2022-11-25T04:29:06.627Z,5.18
2022-11-25T04:31:36.452Z,5.21
2022-11-25T04:34:05.567Z,5.25
2022-11-25T04:36:35.696Z,5.28
2022-11-25T04:39:05.308Z,5.32
2022-11-25T04:41:35.653Z,5.35
2022-11-25T04:44:04.672Z,5.39
2022-11-25T04:46:38.601Z,5.42
2022-11-25T04:49:07.792Z,5.46
2022-11-25T04:51:37.800Z,5.48
2022-11-25T04:54:11.213Z,5.50
2022-11-25T04:56:43.369Z,5.17
2022-11-25T04:59:29.395Z,5.56
2022-11-25T05:01:58.278Z,5.59
2022-11-25T05:04:41.728Z,5.60
2022-11-25T05:07:13.869Z,5.61
2022-11-25T05:09:43.845Z,5.61
2022-11-25T05:12:20.669Z,5.62
2022-11-25T05:14:50.212Z,5.64
2022-11-25T05:17:21.185Z,5.65
2022-11-25T05:19:51.373Z,5.66
2022-11-25T05:22:24.911Z,5.66
2022-11-25T05:24:54.485Z,5.68
2022-11-25T05:27:24.482Z,5.68
2022-11-25T05:29:56.212Z,5.68
2022-11-25T05:32:26.191Z,5.68
2022-11-25T05:34:57.884Z,5.69
2022-11-25T05:37:28.036Z,5.70
2022-11-25T05:40:04.286Z,5.71
2022-11-25T05:42:51.369Z,5.69
2022-11-25T05:45:21.575Z,5.70
2022-11-25T05:47:50.928Z,5.72
2022-11-25T05:50:24.489Z,5.73
2022-11-25T05:53:06.539Z,5.74
2022-11-25T05:55:37.081Z,5.74
2022-11-25T05:58:10.611Z,5.77
2022-11-25T06:00:39.504Z,5.77
2022-11-25T06:03:12.338Z,5.78
2022-11-25T06:05:41.292Z,5.78
2022-11-25T06:08:13.114Z,5.77
2022-11-25T06:10:42.439Z,5.77
2022-11-25T06:13:11.823Z,5.76
2022-11-25T06:15:43.726Z,5.78
2022-11-25T06:18:17.212Z,5.78
2022-11-25T06:20:47.016Z,5.79
2022-11-25T06:23:17.064Z,5.78
2022-11-25T06:25:48.155Z,5.80
2022-11-25T06:28:17.345Z,5.80
2022-11-25T06:30:50.347Z,5.80
2022-11-25T06:33:26.625Z,5.81
2022-11-25T06:35:56.213Z,5.82
2022-11-25T06:38:26.124Z,5.85
2022-11-25T06:40:59.144Z,5.87
2022-11-25T06:43:29.119Z,5.87
2022-11-25T06:46:02.876Z,5.90
2022-11-25T06:48:31.576Z,5.93
2022-11-25T06:51:01.443Z,5.96
2022-11-25T06:53:31.918Z,5.98
2022-11-25T06:56:08.673Z,6.02
2022-11-25T06:58:38.433Z,6.04
2022-11-25T07:01:08.822Z,6.10
2022-11-25T07:03:37.516Z,6.13
2022-11-25T07:06:06.829Z,6.14
2022-11-25T07:08:36.854Z,6.11
2022-11-25T07:11:07.118Z,6.00
2022-11-25T07:13:36.146Z,5.85
2022-11-25T07:16:06.258Z,5.68
2022-11-25T07:18:36.287Z,5.51
2022-11-25T07:21:07.085Z,5.36
2022-11-25T07:23:39.902Z,5.22
2022-11-25T07:26:12.577Z,5.16
2022-11-25T07:28:41.520Z,5.13
2022-11-25T07:31:32.767Z,5.17
2022-11-25T07:34:04.133Z,5.21
2022-11-25T07:36:33.925Z,5.48
2022-11-25T07:39:07.444Z,5.65
2022-11-25T07:41:36.607Z,5.78
2022-11-25T07:44:07.663Z,5.89
2022-11-25T07:46:47.630Z,6.03
2022-11-25T07:49:18.540Z,6.10
2022-11-25T07:51:51.309Z,6.12
2022-11-25T07:54:22.104Z,6.12
2022-11-25T07:56:51.425Z,6.08
2022-11-25T07:59:21.849Z,6.05
2022-11-25T08:01:51.164Z,6.02
2022-11-25T08:04:21.238Z,6.01
2022-11-25T08:06:51.852Z,6.10
2022-11-25T08:09:24.352Z,6.18
2022-11-25T08:11:53.372Z,6.21
2022-11-25T08:14:22.260Z,6.21
2022-11-25T08:16:51.078Z,6.21
2022-11-25T08:19:20.029Z,6.19
2022-11-25T08:21:48.864Z,6.18
2022-11-25T08:24:19.208Z,6.18
2022-11-25T08:26:51.089Z,6.16
2022-11-25T08:29:20.756Z,6.12
2022-11-25T08:31:49.356Z,6.09
2022-11-25T08:34:21.108Z,6.14
2022-11-25T08:36:52.185Z,6.20
2022-11-25T08:39:50.513Z,6.24
2022-11-25T08:42:12.122Z,6.30
2022-11-25T08:44:40.745Z,5.95
2022-11-25T08:47:10.041Z,6.29
2022-11-25T08:49:41.293Z,6.21
2022-11-25T08:52:10.899Z,6.11
2022-11-25T08:54:39.632Z,6.03
2022-11-25T08:57:08.398Z,5.97
2022-11-25T08:59:39.159Z,5.96
2022-11-25T09:02:09.635Z,5.96
2022-11-25T09:04:38.358Z,5.99
2022-11-25T09:07:07.106Z,6.00
2022-11-25T09:09:35.960Z,6.03
2022-11-25T09:12:05.261Z,6.07
2022-11-25T09:14:33.888Z,6.12
2022-11-25T09:17:03.840Z,6.19
2022-11-25T09:19:32.532Z,6.27
2022-11-25T09:22:01.129Z,6.34
2022-11-25T09:24:30.111Z,6.39
2022-11-25T09:26:58.740Z,6.48
2022-11-25T09:29:27.841Z,6.53
2022-11-25T09:31:56.464Z,6.57
2022-11-25T09:34:26.455Z,6.61
2022-11-25T09:36:55.136Z,6.66
2022-11-25T09:39:28.164Z,6.73
2022-11-25T09:42:26.062Z,6.77
2022-11-25T09:45:25.595Z,6.83
2022-11-25T09:48:01.964Z,6.85
2022-11-25T09:50:57.611Z,6.92
2022-11-25T09:53:39.916Z,6.99
2022-11-25T09:56:19.932Z,7.04
2022-11-25T09:58:54.594Z,7.10
2022-11-25T10:01:26.274Z,7.12
2022-11-25T10:04:01.363Z,7.13
2022-11-25T10:06:33.924Z,7.11
2022-11-25T10:09:05.782Z,7.14
2022-11-25T10:11:47.917Z,7.13
2022-11-25T10:14:25.596Z,7.13
2022-11-25T10:17:02.636Z,7.12
2022-11-25T10:19:47.574Z,7.15
2022-11-25T10:22:25.318Z,7.16
2022-11-25T10:24:58.101Z,7.17
2022-11-25T10:27:32.322Z,7.18
2022-11-25T10:30:08.338Z,7.23
2022-11-25T10:32:44.653Z,7.26
2022-11-25T10:35:31.014Z,7.27
2022-11-25T10:38:04.971Z,7.34
2022-11-25T10:40:33.566Z,7.37
2022-11-25T10:43:12.593Z,7.43
2022-11-25T10:45:55.685Z,7.36
2022-11-25T10:48:42.871Z,7.45
2022-11-25T10:51:31.141Z,7.45
2022-11-25T10:54:13.786Z,7.49
2022-11-25T10:56:51.612Z,7.53
2022-11-25T10:59:30.115Z,7.64
2022-11-25T11:02:20.222Z,7.63
2022-11-25T11:05:00.484Z,7.64
2022-11-25T11:07:30.764Z,7.65
2022-11-25T11:10:18.298Z,7.68
2022-11-25T11:12:58.600Z,7.72
2022-11-25T11:15:29.295Z,7.76
2022-11-25T11:17:59.953Z,7.75
2022-11-25T11:20:30.783Z,7.78
2022-11-25T11:23:10.188Z,7.84
2022-11-25T11:25:41.759Z,7.90
2022-11-25T11:28:26.598Z,7.97
2022-11-25T11:31:01.213Z,7.91
2022-11-25T11:33:35.475Z,8.07
2022-11-25T11:36:26.132Z,8.17
2022-11-25T11:38:57.624Z,8.23
2022-11-25T11:41:37.703Z,8.28
2022-11-25T11:44:23.549Z,8.31
2022-11-25T11:47:08.404Z,8.00
2022-11-25T11:50:20.094Z,8.30
2022-11-25T11:52:58.051Z,8.28
2022-11-25T11:56:05.641Z,8.30
2022-11-25T11:58:55.258Z,8.27
2022-11-25T12:01:44.984Z,8.27
2022-11-25T12:04:21.764Z,8.28
2022-11-25T12:07:03.142Z,8.26
2022-11-25T12:09:35.705Z,8.27
2022-11-25T12:12:07.274Z,8.29
2022-11-25T12:14:43.395Z,8.33
2022-11-25T12:17:19.140Z,8.35
2022-11-25T12:19:57.813Z,8.33
2022-11-25T12:22:31.266Z,8.28
2022-11-25T12:25:06.995Z,8.26
2022-11-25T12:27:41.076Z,8.02
2022-11-25T12:30:16.144Z,8.22
2022-11-25T12:32:57.839Z,8.19
2022-11-25T12:35:47.303Z,7.97
2022-11-25T12:38:25.515Z,8.21
2022-11-25T12:41:02.149Z,8.19
2022-11-25T12:43:44.572Z,8.13
2022-11-25T12:46:26.642Z,8.00
2022-11-25T12:48:58.214Z,8.05
2022-11-25T12:51:52.323Z,7.99
2022-11-25T12:54:38.651Z,7.95
2022-11-25T12:57:57.257Z,7.96
2022-11-25T13:00:44.294Z,7.96
2022-11-25T13:03:54.824Z,7.94
2022-11-25T13:06:53.160Z,7.98
2022-11-25T13:09:41.448Z,7.97
2022-11-25T13:12:21.906Z,8.00
2022-11-25T13:15:23.591Z,8.01
2022-11-25T13:17:57.117Z,8.02
2022-11-25T13:20:55.499Z,8.04
2022-11-25T13:23:27.067Z,8.06
2022-11-25T13:26:37.671Z,8.09
2022-11-25T13:29:43.097Z,8.12
2022-11-25T13:32:28.947Z,8.17
2022-11-25T13:35:36.611Z,8.20
2022-11-25T13:39:04.875Z,7.87
2022-11-25T13:41:43.246Z,8.17
2022-11-25T13:44:30.752Z,8.15
2022-11-25T13:47:01.799Z,8.11
2022-11-25T13:49:51.529Z,8.06
2022-11-25T13:52:42.354Z,8.02
2022-11-25T13:55:27.320Z,7.95
2022-11-25T13:58:19.604Z,7.90
2022-11-25T14:01:24.857Z,7.82
2022-11-25T14:04:01.287Z,7.75
2022-11-25T14:07:00.965Z,7.67
2022-11-25T14:09:47.567Z,7.62
2022-11-25T14:12:32.894Z,7.57
2022-11-25T14:15:29.746Z,7.52
2022-11-25T14:18:53.236Z,7.51
2022-11-25T14:21:38.008Z,7.45
2022-11-25T14:24:21.003Z,7.42
2022-11-25T14:26:53.431Z,7.37
2022-11-25T14:29:28.971Z,7.34
2022-11-25T14:32:03.060Z,7.29
2022-11-25T14:34:37.888Z,7.24
2022-11-25T14:37:12.902Z,7.19
2022-11-25T14:39:47.478Z,7.12
2022-11-25T14:42:18.564Z,7.09
2022-11-25T14:44:50.662Z,7.06
2022-11-25T14:47:24.162Z,7.03
2022-11-25T14:50:18.769Z,7.05
2022-11-25T14:52:45.981Z,7.16
2022-11-25T14:55:15.539Z,7.24
2022-11-25T14:57:46.901Z,6.98
2022-11-25T15:00:18.999Z,7.39
2022-11-25T15:02:56.596Z,7.44
2022-11-25T15:05:28.194Z,7.35
2022-11-25T15:08:03.686Z,7.44
2022-11-25T15:10:45.887Z,7.45
2022-11-25T15:13:25.086Z,7.47
2022-11-25T15:15:56.744Z,7.48
2022-11-25T15:18:27.024Z,7.45
2022-11-25T15:20:59.546Z,7.49
2022-11-25T15:23:34.579Z,7.54
2022-11-25T15:26:04.606Z,7.61
2022-11-25T15:28:37.070Z,7.66
2022-11-25T15:31:13.473Z,7.72
2022-11-25T15:33:43.251Z,7.73
2022-11-25T15:36:12.018Z,7.75
2022-11-25T15:38:43.722Z,7.45
2022-11-25T15:41:19.630Z,7.85
2022-11-25T15:43:50.555Z,7.90
2022-11-25T15:46:20.875Z,7.92
2022-11-25T15:48:52.497Z,7.92
2022-11-25T15:51:32.775Z,7.58
2022-11-25T15:54:06.624Z,7.96
2022-11-25T15:56:38.611Z,7.97
2022-11-25T15:59:27.445Z,8.02
2022-11-25T16:01:57.552Z,8.03
2022-11-25T16:04:26.855Z,8.06
2022-11-25T16:06:56.837Z,8.10
2022-11-25T16:09:28.880Z,8.10
2022-11-25T16:12:13.228Z,8.12
2022-11-25T16:14:41.904Z,8.13
2022-11-25T16:17:14.253Z,8.16
2022-11-25T16:19:45.043Z,8.16
2022-11-25T16:22:16.317Z,8.16
2022-11-25T16:24:50.929Z,8.16
2022-11-25T16:27:25.237Z,8.15
2022-11-25T16:29:58.557Z,8.17
2022-11-25T16:32:31.398Z,8.20
2022-11-25T16:35:13.324Z,8.21
2022-11-25T16:37:47.219Z,8.20
2022-11-25T16:40:18.964Z,8.20
2022-11-25T16:42:49.757Z,8.22
2022-11-25T16:45:21.941Z,8.23
2022-11-25T16:47:52.349Z,8.25
2022-11-25T16:50:22.909Z,8.23
2022-11-25T16:52:52.338Z,8.25
2022-11-25T16:55:21.175Z,8.26
2022-11-25T16:57:50.731Z,8.27
2022-11-25T17:00:19.928Z,8.27
2022-11-25T17:02:48.546Z,8.27
2022-11-25T17:05:23.004Z,8.11
2022-11-25T17:07:52.579Z,8.25
2022-11-25T17:10:21.824Z,8.23
2022-11-25T17:12:51.412Z,8.24
2022-11-25T17:15:24.908Z,8.24
2022-11-25T17:17:53.892Z,8.23
2022-11-25T17:20:25.649Z,8.23
2022-11-25T17:22:54.965Z,8.26
2022-11-25T17:25:25.623Z,8.29
2022-11-25T17:27:56.116Z,8.30
2022-11-25T17:30:27.303Z,8.29
2022-11-25T17:33:02.273Z,8.29
2022-11-25T17:35:32.492Z,8.30
2022-11-25T17:38:02.009Z,8.28
2022-11-25T17:40:31.174Z,8.26
2022-11-25T17:42:59.961Z,8.27
2022-11-25T17:45:29.522Z,8.29
2022-11-25T17:47:58.755Z,8.28
2022-11-25T17:50:28.112Z,8.26
2022-11-25T17:52:58.117Z,8.25
2022-11-25T17:55:27.232Z,8.25
2022-11-25T17:57:55.865Z,8.24
2022-11-25T18:00:24.974Z,8.23
2022-11-25T18:02:54.572Z,8.22
2022-11-25T18:05:25.022Z,8.23
2022-11-25T18:07:54.447Z,8.25
2022-11-25T18:10:27.860Z,8.26
2022-11-25T18:12:58.647Z,8.24
2022-11-25T18:15:30.820Z,7.96
2022-11-25T18:18:03.608Z,8.21
2022-11-25T18:20:33.225Z,8.19
2022-11-25T18:23:02.458Z,8.21
2022-11-25T18:25:34.966Z,8.23
2022-11-25T18:28:05.531Z,8.19
2022-11-25T18:30:36.965Z,8.16
2022-11-25T18:33:09.051Z,8.15
2022-11-25T18:35:37.784Z,8.18
2022-11-25T18:38:07.423Z,8.15
2022-11-25T18:40:40.600Z,8.16
2022-11-25T18:43:16.049Z,8.19
2022-11-25T18:45:45.958Z,8.15
2022-11-25T18:48:17.421Z,8.14
2022-11-25T18:50:47.433Z,8.17
2022-11-25T18:53:16.838Z,8.17
2022-11-25T18:55:47.823Z,8.17
2022-11-25T18:58:18.907Z,8.16
2022-11-25T19:00:49.646Z,8.16
2022-11-25T19:03:20.475Z,8.16
2022-11-25T19:08:36.527Z,8.14
2022-11-25T19:11:07.332Z,8.14
2022-11-25T19:13:37.462Z,8.12
2022-11-25T19:16:09.470Z,8.11
2022-11-25T19:18:38.269Z,8.11
2022-11-25T19:21:07.222Z,8.08
2022-11-25T19:23:36.542Z,8.06
2022-11-25T19:26:15.600Z,8.05
2022-11-25T19:28:49.599Z,8.03
2022-11-25T19:31:21.329Z,8.03
2022-11-25T19:33:53.357Z,8.03
2022-11-25T19:36:25.435Z,8.01
2022-11-25T19:38:55.869Z,7.97
2022-11-25T19:41:26.262Z,7.97
2022-11-25T19:43:55.171Z,7.95
2022-11-25T19:46:46.382Z,7.94
2022-11-25T19:49:24.380Z,7.93
2022-11-25T19:51:54.241Z,7.95
2022-11-25T19:54:22.981Z,7.93
2022-11-25T19:56:53.378Z,7.91
2022-11-25T19:59:22.250Z,7.90
2022-11-25T20:01:51.137Z,7.87
2022-11-25T20:04:22.437Z,7.86
2022-11-25T20:06:52.173Z,7.85
2022-11-25T20:09:20.938Z,7.84
2022-11-25T20:11:54.667Z,7.82
2022-11-25T20:14:25.734Z,7.78
2022-11-25T20:16:55.130Z,7.77
2022-11-25T20:19:24.381Z,7.73
2022-11-25T20:21:55.861Z,7.72
2022-11-25T20:24:26.899Z,7.73
2022-11-25T20:26:57.782Z,7.72
2022-11-25T20:29:30.669Z,7.70
2022-11-25T20:32:20.242Z,7.65
2022-11-25T20:34:49.017Z,7.64
2022-11-25T20:37:23.702Z,7.62
2022-11-25T20:39:54.230Z,7.60
2022-11-25T20:42:23.957Z,7.61
2022-11-25T20:44:57.538Z,7.62
2022-11-25T20:47:27.446Z,7.62
2022-11-25T20:49:56.313Z,7.64
2022-11-25T20:52:29.049Z,7.67
2022-11-25T20:54:58.132Z,7.65
2022-11-25T20:57:27.233Z,7.65
2022-11-25T20:59:57.286Z,7.66
2022-11-25T21:02:25.967Z,7.66
2022-11-25T21:04:54.566Z,7.66
2022-11-25T21:07:23.285Z,7.63
2022-11-25T21:09:51.930Z,7.65
2022-11-25T21:12:20.600Z,7.67
2022-11-25T21:14:50.268Z,7.66
2022-11-25T21:17:20.822Z,7.66
2022-11-25T21:19:49.536Z,7.65
2022-11-25T21:22:18.485Z,7.66
2022-11-25T21:24:47.467Z,7.67
2022-11-25T21:27:19.973Z,7.68
2022-11-25T21:29:48.790Z,7.69
2022-11-25T21:32:24.388Z,7.70
2022-11-25T21:34:53.715Z,7.71
2022-11-25T21:37:29.956Z,7.69
2022-11-25T21:39:59.618Z,7.71
2022-11-25T21:42:30.325Z,7.72
2022-11-25T21:44:59.222Z,7.74
2022-11-25T21:47:31.685Z,7.75
2022-11-25T21:50:01.515Z,7.76
2022-11-25T21:52:30.096Z,7.76
2022-11-25T21:54:58.867Z,7.77
2022-11-25T21:57:30.309Z,7.53
2022-11-25T21:59:59.064Z,7.81
2022-11-25T22:02:29.074Z,7.83
2022-11-25T22:04:58.700Z,7.82
2022-11-25T22:07:30.734Z,7.85
2022-11-25T22:09:59.814Z,7.85
2022-11-25T22:12:30.730Z,7.85
2022-11-25T22:15:01.051Z,7.84
2022-11-25T22:17:31.953Z,7.84
2022-11-25T22:20:00.877Z,7.85
2022-11-25T22:22:29.701Z,7.87
2022-11-25T22:24:58.382Z,7.86
2022-11-25T22:27:36.083Z,7.86
2022-11-25T22:30:05.864Z,7.87
2022-11-25T22:32:35.919Z,7.87
2022-11-25T22:35:06.742Z,7.90
2022-11-25T22:37:35.431Z,7.87
2022-11-25T22:40:04.062Z,7.88
2022-11-25T22:42:33.732Z,7.91
2022-11-25T22:45:05.220Z,7.91
2022-11-25T22:47:42.024Z,7.53
2022-11-25T22:50:21.688Z,7.89
2022-11-25T22:52:50.977Z,7.94
2022-11-25T22:55:22.073Z,7.94
2022-11-25T22:57:51.719Z,7.89
2022-11-25T23:00:24.627Z,7.87
2022-11-25T23:02:58.255Z,7.86
2022-11-25T23:05:33.040Z,7.87
2022-11-25T23:08:02.990Z,7.88
2022-11-25T23:10:32.938Z,7.40
2022-11-25T23:13:01.648Z,7.88
2022-11-25T23:15:31.138Z,7.88
2022-11-25T23:18:04.128Z,7.91
2022-11-25T23:20:34.608Z,7.87
2022-11-25T23:23:11.611Z,7.87
2022-11-25T23:25:40.359Z,7.90
2022-11-25T23:28:09.019Z,7.89
2022-11-25T23:30:38.532Z,7.90
2022-11-25T23:33:16.930Z,7.89
2022-11-25T23:35:45.697Z,7.91
2022-11-25T23:38:19.819Z,7.90
2022-11-25T23:40:48.501Z,7.87
2022-11-25T23:43:18.290Z,7.85
2022-11-25T23:45:52.473Z,7.88
2022-11-25T23:48:27.017Z,7.88
2022-11-25T23:50:58.102Z,7.86
2022-11-25T23:53:30.224Z,7.84
2022-11-25T23:55:59.175Z,7.83
2022-11-25T23:58:27.861Z,7.86
